Lincoln, Alabama
Current Conditions -  °F | °C
As of 5:55 PM on Wednesday 22 Oct 2014 (Local Time) from KASN Reporting Station
Clear Clear  
Wind Chill: 67°   Ceiling: Unl
Heat Index: 67°   Visibility: 10mi
Dew Point: 42°   Wind: 5mph
Humidity: 41%   Direction: 360°N
Pressure: 30.11"   Gusts: NA
Location:  33.61°N, 86.12°W
Report Text: KASN 222255Z AUTO 36004KT 10SM CLR 19/06 A3011 RMK AO2 T01920055
Loading
Personal Weather Stations






























Interactive Weather Map New forecast layout! Learn more

10-Day Weather Forecast

Advertisements
Track Severe Weather on mobile